KSWO/SWO METAR and TAF weather

Enter ICAO airport designator
Station Type Date Time Source
KSWO METAR 2020/01/19 13:53 UTC NOAA

KSWO 191353Z 29004KT 10SM CLR M02/M05 A3053 RMK AO2 SLP344 T10221050


Station Type Date Time Source
KSWO Decoded METAR 2020/01/19 13:53 UTC NOAA

STILLWATER REGIONAL AIRPORT, OK, United States (KSWO) 36-10N 97-05W 290M
Jan 19, 2020 - 08:53 AM EST / 2020.01.19 1353 UTC
Wind: from the WNW (290 degrees) at 5 MPH (4 KT):0
Visibility: 10 mile(s):0
Sky conditions: clear
Temperature: 28.0 F (-2.2 C)
Windchill: 23 F (-5 C):1
Dew Point: 23.0 F (-5.0 C)
Relative Humidity: 81%
Pressure (altimeter): 30.53 in. Hg (1033 hPa)
ob: KSWO 191353Z 29004KT 10SM CLR M02/M05 A3053 RMK AO2 SLP344 T10221050
cycle: 14

Station Type Date Time Source
KSWO TAF UTC NOAA

Error!

Example: see airport list